Time;durP1;ratioP1;P1;durP2;ratioP2;P2;SDS_P1;SDS_P2;PMS_P1;PMS_P2;Temp;Humidity;BMP_temperature;BMP_pressure;BME280_temperature;BME280_humidity;BME280_pressure;Samples;Min_cycle;Max_cycle;Signal;HPM_P1;HPM_P2
2022/11/19 00:01:28;;;;;;;24.45;11.60;;;;;;;;;;5095555;28;20027;-69
2022/11/19 00:03:55;;;;;;;22.45;11.77;;;;;;;;;;5077460;28;20396;-68
2022/11/19 00:06:22;;;;;;;24.75;13.00;;;;;;;;;;5077453;28;20028;-69
2022/11/19 00:08:49;;;;;;;21.83;10.18;;;;;;;;;;5096209;28;20548;-69
2022/11/19 00:14:04;;;;;;;11.85;5.50;;;;;;;;;;5095831;28;20089;-69
2022/11/19 00:16:31;;;;;;;13.23;6.85;;;;;;;;;;5095392;28;20030;-69
2022/11/19 00:18:57;;;;;;;12.98;4.72;;;;;;;;;;5095320;28;20393;-69
2022/11/19 00:21:23;;;;;;;9.18;4.90;;;;;;;;;;5095457;28;20030;-69
2022/11/19 00:23:53;;;;;;;12.93;5.63;;;;;;;;;;5095271;28;20040;-69
2022/11/19 00:26:19;;;;;;;33.63;17.25;;;;;;;;;;5095430;28;20032;-69
2022/11/19 00:28:46;;;;;;;24.88;9.82;;;;;;;;;;5095461;28;20027;-69
2022/11/19 00:31:13;;;;;;;15.77;6.40;;;;;;;;;;5076900;28;20020;-69
2022/11/19 00:33:40;;;;;;;29.40;13.88;;;;;;;;;;5095297;28;20038;-69
2022/11/19 00:36:08;;;;;;;18.15;9.25;;;;;;;;;;5095488;28;20028;-69
2022/11/19 00:38:34;;;;;;;25.02;11.40;;;;;;;;;;5094293;28;20052;-69
2022/11/19 00:41:01;;;;;;;19.25;10.05;;;;;;;;;;5072573;28;20031;-69
2022/11/19 00:43:45;;;;;;;14.48;7.45;;;;;;;;;;5073840;28;20401;-69
2022/11/19 00:46:13;;;;;;;14.18;6.65;;;;;;;;;;5073257;28;20404;-68
2022/11/19 00:48:39;;;;;;;13.18;4.90;;;;;;;;;;5073856;28;20024;-69
2022/11/19 00:51:06;;;;;;;10.38;3.53;;;;;;;;;;5055819;28;20178;-69
2022/11/19 00:53:32;;;;;;;8.15;3.88;;;;;;;;;;5073873;28;20028;-69
2022/11/19 00:56:03;;;;;;;9.98;3.33;;;;;;;;;;5073017;28;20029;-69
2022/11/19 00:58:29;;;;;;;6.07;2.70;;;;;;;;;;5073608;28;20055;-68
2022/11/19 01:00:56;;;;;;;6.63;2.55;;;;;;;;;;5073036;28;20032;-69
2022/11/19 01:03:23;;;;;;;7.72;2.22;;;;;;;;;;5073612;28;20031;-69
2022/11/19 01:05:49;;;;;;;6.25;2.33;;;;;;;;;;5073327;28;20046;-68
2022/11/19 01:08:16;;;;;;;9.55;2.63;;;;;;;;;;5073255;28;20489;-69
2022/11/19 01:10:43;;;;;;;14.32;3.50;;;;;;;;;;5073553;28;20028;-68
2022/11/19 01:15:54;;;;;;;7.90;2.60;;;;;;;;;;5072826;28;20039;-68
2022/11/19 01:18:21;;;;;;;5.60;2.08;;;;;;;;;;5073024;28;20021;-68
2022/11/19 01:20:47;;;;;;;6.00;2.10;;;;;;;;;;5073061;28;20375;-69
2022/11/19 01:23:13;;;;;;;6.10;2.22;;;;;;;;;;5073388;28;20028;-69
2022/11/19 01:25:40;;;;;;;7.72;1.98;;;;;;;;;;5073034;28;20025;-69
2022/11/19 01:28:07;;;;;;;8.25;2.20;;;;;;;;;;5073059;28;20021;-69
2022/11/19 01:30:33;;;;;;;7.47;2.38;;;;;;;;;;5072508;28;20024;-68
2022/11/19 01:33:00;;;;;;;6.70;2.28;;;;;;;;;;5073502;28;20032;-67
2022/11/19 01:35:26;;;;;;;8.10;2.47;;;;;;;;;;5072992;28;20027;-68
2022/11/19 01:37:52;;;;;;;10.18;2.50;;;;;;;;;;5031723;28;1174945;-68
2022/11/19 01:40:19;;;;;;;8.57;2.00;;;;;;;;;;5073510;28;20097;-68
2022/11/19 01:42:48;;;;;;;8.07;2.17;;;;;;;;;;5073515;28;20392;-68
2022/11/19 01:45:27;;;;;;;6.63;2.08;;;;;;;;;;5073644;28;20037;-69
2022/11/19 01:47:54;;;;;;;5.53;2.20;;;;;;;;;;5073475;28;20031;-69
2022/11/19 01:50:21;;;;;;;4.40;2.08;;;;;;;;;;5073536;28;20378;-69
2022/11/19 01:52:48;;;;;;;6.30;2.00;;;;;;;;;;5073474;28;20389;-67
2022/11/19 01:55:16;;;;;;;7.57;2.40;;;;;;;;;;5073506;28;20469;-68
2022/11/19 01:57:42;;;;;;;8.95;2.50;;;;;;;;;;5072972;28;20062;-68
2022/11/19 02:00:09;;;;;;;5.28;2.38;;;;;;;;;;5073339;28;20028;-68
2022/11/19 02:02:35;;;;;;;9.50;2.20;;;;;;;;;;5073340;28;20030;-68
2022/11/19 02:05:02;;;;;;;5.82;2.30;;;;;;;;;;5055293;28;20041;-68
2022/11/19 02:07:31;;;;;;;8.55;2.10;;;;;;;;;;5072449;28;20021;-68
2022/11/19 02:09:58;;;;;;;5.88;2.40;;;;;;;;;;5073434;28;20028;-68
2022/11/19 02:12:27;;;;;;;4.40;2.13;;;;;;;;;;5072720;28;20393;-69
2022/11/19 02:15:07;;;;;;;5.05;2.13;;;;;;;;;;5073145;28;20077;-68
2022/11/19 02:17:41;;;;;;;9.50;2.47;;;;;;;;;;5073025;28;20025;-69
2022/11/19 02:20:26;;;;;;;5.30;2.30;;;;;;;;;;5073035;28;20033;-68
2022/11/19 02:22:55;;;;;;;8.65;2.45;;;;;;;;;;5072919;28;20024;-68
2022/11/19 02:25:22;;;;;;;8.10;2.97;;;;;;;;;;5072857;28;20028;-68
2022/11/19 02:27:57;;;;;;;6.05;2.63;;;;;;;;;;5072682;28;20028;-68
2022/11/19 02:30:23;;;;;;;4.38;2.60;;;;;;;;;;5072756;28;20516;-69
2022/11/19 02:32:49;;;;;;;9.40;2.95;;;;;;;;;;5072679;28;20097;-69
2022/11/19 02:35:23;;;;;;;7.38;2.58;;;;;;;;;;5072886;28;20030;-68
2022/11/19 02:38:00;;;;;;;11.57;2.95;;;;;;;;;;5072411;28;20040;-69
2022/11/19 02:40:29;;;;;;;7.43;2.75;;;;;;;;;;5078106;28;20427;-68
2022/11/19 02:43:15;;;;;;;6.50;2.45;;;;;;;;;;5092472;28;20112;-69
2022/11/19 02:46:11;;;;;;;5.60;2.08;;;;;;;;;;5092490;28;20050;-69
2022/11/19 02:48:49;;;;;;;5.50;2.05;;;;;;;;;;5074733;28;20046;-69
2022/11/19 02:51:16;;;;;;;8.38;3.13;;;;;;;;;;5092711;28;20024;-69
2022/11/19 02:53:42;;;;;;;9.65;2.72;;;;;;;;;;5092821;28;20024;-69
2022/11/19 02:56:16;;;;;;;6.53;2.47;;;;;;;;;;5092313;28;20467;-69
2022/11/19 03:04:29;;;;;;;4.85;1.90;;;;;;;;;;5092260;28;20040;-69
2022/11/19 03:06:57;;;;;;;6.22;2.10;;;;;;;;;;5074294;28;20032;-68
2022/11/19 03:09:24;;;;;;;7.80;2.15;;;;;;;;;;5092507;28;20477;-69
2022/11/19 03:11:57;;;;;;;4.30;1.80;;;;;;;;;;5091910;28;20484;-68
2022/11/19 03:17:10;;;;;;;9.63;2.25;;;;;;;;;;5092194;28;20034;-69
2022/11/19 03:19:39;;;;;;;8.68;2.90;;;;;;;;;;5092527;28;20020;-69
2022/11/19 03:22:15;;;;;;;6.10;2.60;;;;;;;;;;5092722;28;20016;-68
2022/11/19 03:24:44;;;;;;;10.18;3.10;;;;;;;;;;5091888;28;20062;-69
2022/11/19 03:27:16;;;;;;;6.40;2.83;;;;;;;;;;5091996;28;20092;-69
2022/11/19 03:29:48;;;;;;;6.82;2.28;;;;;;;;;;5092109;28;20024;-69
2022/11/19 03:32:17;;;;;;;5.18;1.95;;;;;;;;;;5092382;28;20024;-69
2022/11/19 03:34:43;;;;;;;7.43;2.28;;;;;;;;;;5083880;28;20039;-68
2022/11/19 03:37:10;;;;;;;7.15;2.10;;;;;;;;;;5092057;28;20044;-69
2022/11/19 03:39:37;;;;;;;11.30;2.50;;;;;;;;;;5091707;28;20020;-69
2022/11/19 03:42:05;;;;;;;7.50;1.90;;;;;;;;;;5074003;28;20016;-69
2022/11/19 03:44:38;;;;;;;7.35;2.05;;;;;;;;;;5091955;28;20412;-69
2022/11/19 03:47:07;;;;;;;4.82;2.17;;;;;;;;;;5092120;28;20023;-68
2022/11/19 03:49:36;;;;;;;4.28;1.90;;;;;;;;;;5092269;28;20388;-69
2022/11/19 03:52:05;;;;;;;7.85;2.05;;;;;;;;;;5091937;28;20027;-69
2022/11/19 03:54:32;;;;;;;6.22;2.05;;;;;;;;;;5091376;28;20495;-69
2022/11/19 03:56:59;;;;;;;6.50;1.77;;;;;;;;;;5091881;28;20028;-69
2022/11/19 03:59:26;;;;;;;5.10;2.17;;;;;;;;;;5091830;28;20024;-68
2022/11/19 04:01:54;;;;;;;5.13;1.70;;;;;;;;;;5091791;28;20020;-69
2022/11/19 04:04:38;;;;;;;6.72;2.10;;;;;;;;;;5091781;28;20043;-69
2022/11/19 04:07:07;;;;;;;10.48;2.60;;;;;;;;;;5091690;28;20024;-68
2022/11/19 04:09:34;;;;;;;5.40;1.85;;;;;;;;;;5091530;28;20020;-69
2022/11/19 04:12:01;;;;;;;4.38;1.58;;;;;;;;;;5091635;28;20013;-68
2022/11/19 04:14:27;;;;;;;5.30;2.15;;;;;;;;;;5092008;28;20032;-69
2022/11/19 04:16:54;;;;;;;3.30;1.63;;;;;;;;;;5091787;28;20018;-69
2022/11/19 04:19:20;;;;;;;8.75;1.73;;;;;;;;;;5091694;28;20504;-69
2022/11/19 04:21:47;;;;;;;4.78;1.88;;;;;;;;;;5091694;28;20017;-69
2022/11/19 04:24:13;;;;;;;3.92;1.77;;;;;;;;;;5091425;28;20036;-68
2022/11/19 04:26:39;;;;;;;8.30;1.70;;;;;;;;;;5091584;28;20046;-68
2022/11/19 04:29:06;;;;;;;6.47;1.63;;;;;;;;;;5091855;28;20020;-69
2022/11/19 04:31:32;;;;;;;6.13;2.22;;;;;;;;;;5095074;28;20423;-69
2022/11/19 04:33:58;;;;;;;4.75;1.80;;;;;;;;;;5095365;28;20028;-69
2022/11/19 04:36:25;;;;;;;4.35;2.05;;;;;;;;;;5095252;28;20034;-69
2022/11/19 04:38:51;;;;;;;8.68;2.90;;;;;;;;;;5094832;28;20036;-69
2022/11/19 04:41:17;;;;;;;6.47;2.33;;;;;;;;;;5082311;28;20408;-69
2022/11/19 04:43:44;;;;;;;7.00;2.10;;;;;;;;;;5074898;28;20046;-69
2022/11/19 04:46:10;;;;;;;6.10;2.20;;;;;;;;;;5074726;28;20091;-69
2022/11/19 04:48:36;;;;;;;5.07;2.17;;;;;;;;;;5074651;28;20035;-69
2022/11/19 04:51:03;;;;;;;5.25;2.20;;;;;;;;;;5074903;28;20020;-68
2022/11/19 04:53:29;;;;;;;5.22;2.08;;;;;;;;;;5074396;28;20424;-68
2022/11/19 04:55:55;;;;;;;5.47;1.88;;;;;;;;;;5056886;28;20031;-69
2022/11/19 04:58:21;;;;;;;6.45;1.98;;;;;;;;;;5074578;28;20016;-69
2022/11/19 05:00:48;;;;;;;4.40;2.13;;;;;;;;;;5074393;28;20032;-69
2022/11/19 05:03:14;;;;;;;5.32;2.17;;;;;;;;;;5074398;28;20033;-68
2022/11/19 05:05:40;;;;;;;7.50;2.15;;;;;;;;;;5074274;28;20447;-69
2022/11/19 05:08:07;;;;;;;5.22;2.17;;;;;;;;;;5074090;28;20020;-68
2022/11/19 05:10:33;;;;;;;6.28;2.05;;;;;;;;;;5074252;28;20474;-68
2022/11/19 05:12:59;;;;;;;4.60;2.17;;;;;;;;;;5074210;28;20031;-69
2022/11/19 05:15:26;;;;;;;6.25;1.90;;;;;;;;;;5074353;28;20020;-69
2022/11/19 05:17:52;;;;;;;6.00;1.83;;;;;;;;;;5074415;28;20392;-69
2022/11/19 05:20:18;;;;;;;5.88;2.30;;;;;;;;;;5073634;28;20028;-68
2022/11/19 05:22:45;;;;;;;6.75;2.40;;;;;;;;;;5074055;28;20416;-69
2022/11/19 05:25:11;;;;;;;7.93;2.33;;;;;;;;;;5073793;28;20504;-68
2022/11/19 05:27:38;;;;;;;3.85;1.92;;;;;;;;;;5056126;28;20432;-69
2022/11/19 05:30:04;;;;;;;6.57;2.13;;;;;;;;;;5073976;28;20383;-69
2022/11/19 05:32:30;;;;;;;6.13;2.40;;;;;;;;;;5073998;28;20021;-69
2022/11/19 05:34:57;;;;;;;7.43;2.25;;;;;;;;;;5073433;28;20025;-69
2022/11/19 05:37:23;;;;;;;5.90;2.50;;;;;;;;;;5073752;28;20082;-68
2022/11/19 05:39:50;;;;;;;6.95;2.55;;;;;;;;;;5074055;28;20039;-69
2022/11/19 05:42:16;;;;;;;5.55;2.45;;;;;;;;;;5093086;28;20024;-69
2022/11/19 05:44:42;;;;;;;6.28;2.38;;;;;;;;;;5093826;28;20032;-69
2022/11/19 05:47:08;;;;;;;12.65;3.30;;;;;;;;;;5094009;28;20020;-69
2022/11/19 05:49:35;;;;;;;8.20;3.45;;;;;;;;;;5093711;28;20034;-68
2022/11/19 05:52:01;;;;;;;13.43;3.30;;;;;;;;;;5093860;28;20046;-69
2022/11/19 05:54:28;;;;;;;6.93;3.28;;;;;;;;;;5093693;28;20416;-69
2022/11/19 05:56:54;;;;;;;10.30;3.33;;;;;;;;;;5093993;28;20069;-69
2022/11/19 05:59:20;;;;;;;5.43;3.05;;;;;;;;;;5093611;28;20577;-69
2022/11/19 06:01:46;;;;;;;6.13;2.95;;;;;;;;;;5093736;28;20024;-69
2022/11/19 06:04:13;;;;;;;6.63;3.10;;;;;;;;;;5075322;28;20508;-68
2022/11/19 06:06:39;;;;;;;7.93;3.10;;;;;;;;;;5093571;28;20477;-69
2022/11/19 06:09:06;;;;;;;9.13;3.67;;;;;;;;;;5093477;28;20042;-69
2022/11/19 06:11:47;;;;;;;11.98;4.65;;;;;;;;;;5093365;28;20026;-69
2022/11/19 06:14:14;;;;;;;17.10;5.38;;;;;;;;;;5093461;28;20121;-69
2022/11/19 06:16:40;;;;;;;9.95;3.88;;;;;;;;;;5093247;28;20380;-69
2022/11/19 06:19:06;;;;;;;11.07;3.60;;;;;;;;;;5092979;28;20019;-69
2022/11/19 06:21:33;;;;;;;10.23;3.50;;;;;;;;;;5093274;28;20032;-69
2022/11/19 06:23:59;;;;;;;27.13;12.95;;;;;;;;;;5092992;28;20040;-68
2022/11/19 06:26:26;;;;;;;34.08;18.13;;;;;;;;;;5093216;28;20028;-68
2022/11/19 06:28:53;;;;;;;9.30;3.97;;;;;;;;;;5093244;28;20054;-68
2022/11/19 06:31:20;;;;;;;15.63;7.28;;;;;;;;;;5093045;28;20036;-69
2022/11/19 06:33:46;;;;;;;11.98;5.97;;;;;;;;;;5092718;28;20020;-69
2022/11/19 06:36:13;;;;;;;13.45;5.00;;;;;;;;;;5093012;28;20024;-69
2022/11/19 06:38:39;;;;;;;12.82;5.90;;;;;;;;;;5092827;28;20059;-69
2022/11/19 06:41:06;;;;;;;12.82;5.43;;;;;;;;;;5081750;28;20473;-68
2022/11/19 06:43:32;;;;;;;9.38;3.80;;;;;;;;;;5072719;28;20032;-68
2022/11/19 06:45:59;;;;;;;10.50;3.17;;;;;;;;;;5072355;28;20064;-68
2022/11/19 06:48:25;;;;;;;6.35;3.20;;;;;;;;;;5072105;28;20023;-68
2022/11/19 06:50:51;;;;;;;14.88;6.07;;;;;;;;;;5072475;28;20511;-69
2022/11/19 06:53:17;;;;;;;30.73;13.25;;;;;;;;;;5054328;28;20027;-69
2022/11/19 06:55:44;;;;;;;19.67;7.95;;;;;;;;;;5072369;28;20024;-69
2022/11/19 06:58:10;;;;;;;10.80;3.65;;;;;;;;;;5072296;28;20432;-70
2022/11/19 07:00:36;;;;;;;14.73;6.85;;;;;;;;;;5072146;28;20413;-69
2022/11/19 07:03:03;;;;;;;25.80;11.32;;;;;;;;;;5072328;28;20031;-70
2022/11/19 07:05:29;;;;;;;19.30;7.53;;;;;;;;;;5072081;28;20093;-69
2022/11/19 07:07:55;;;;;;;77.53;21.58;;;;;;;;;;5072305;28;20024;-70
2022/11/19 07:10:21;;;;;;;20.73;9.05;;;;;;;;;;5072215;28;20025;-70
2022/11/19 07:12:48;;;;;;;24.00;9.50;;;;;;;;;;5072151;28;20017;-70
2022/11/19 07:15:14;;;;;;;27.85;10.77;;;;;;;;;;5072168;28;20032;-70
2022/11/19 07:17:41;;;;;;;37.13;15.80;;;;;;;;;;5071795;28;20016;-70
2022/11/19 07:20:08;;;;;;;24.33;11.32;;;;;;;;;;5072419;28;20032;-70
2022/11/19 07:22:34;;;;;;;15.77;7.13;;;;;;;;;;5072243;28;20019;-70
2022/11/19 07:25:00;;;;;;;12.85;7.20;;;;;;;;;;5072051;28;20038;-70
2022/11/19 07:27:26;;;;;;;20.27;8.88;;;;;;;;;;5072375;28;20020;-70
2022/11/19 07:29:53;;;;;;;18.20;8.25;;;;;;;;;;5072087;28;20029;-69
2022/11/19 07:32:19;;;;;;;37.78;21.48;;;;;;;;;;5071723;28;20036;-69
2022/11/19 07:34:45;;;;;;;21.63;9.55;;;;;;;;;;5071910;28;20486;-70
2022/11/19 07:37:12;;;;;;;17.50;8.43;;;;;;;;;;5071672;28;20049;-70
2022/11/19 07:39:38;;;;;;;18.90;9.32;;;;;;;;;;5054122;28;20029;-70
2022/11/19 07:44:49;;;;;;;12.68;5.15;;;;;;;;;;5091907;28;20035;-69
2022/11/19 07:47:15;;;;;;;13.95;6.25;;;;;;;;;;5091750;28;20016;-70
2022/11/19 07:49:42;;;;;;;29.48;16.90;;;;;;;;;;5091840;28;20024;-70
2022/11/19 07:52:08;;;;;;;11.13;6.00;;;;;;;;;;5091970;28;20016;-70
2022/11/19 07:54:34;;;;;;;15.68;5.63;;;;;;;;;;5092183;28;20028;-70
2022/11/19 07:57:01;;;;;;;12.40;5.68;;;;;;;;;;5091893;28;20472;-69
2022/11/19 07:59:27;;;;;;;12.60;5.35;;;;;;;;;;5092242;28;20038;-70
2022/11/19 08:01:53;;;;;;;7.85;4.25;;;;;;;;;;5091431;28;20024;-70
2022/11/19 08:04:20;;;;;;;12.20;4.55;;;;;;;;;;5073864;28;20488;-70
2022/11/19 08:06:46;;;;;;;7.75;4.05;;;;;;;;;;5096133;28;20085;-69
2022/11/19 08:09:12;;;;;;;7.63;4.20;;;;;;;;;;5095988;28;20024;-70
2022/11/19 08:11:39;;;;;;;9.43;4.93;;;;;;;;;;5060897;28;20036;-70
2022/11/19 08:14:05;;;;;;;9.60;4.65;;;;;;;;;;5096013;28;20025;-70
2022/11/19 08:19:17;;;;;;;12.45;6.35;;;;;;;;;;5095677;28;20032;-70
2022/11/19 08:21:45;;;;;;;15.15;6.80;;;;;;;;;;5087272;28;20473;-70
2022/11/19 08:24:12;;;;;;;12.52;7.38;;;;;;;;;;5095653;28;20032;-70
2022/11/19 08:26:39;;;;;;;48.13;25.15;;;;;;;;;;5095579;28;20034;-70
2022/11/19 08:29:06;;;;;;;14.52;7.55;;;;;;;;;;5095319;28;20031;-70
2022/11/19 08:31:32;;;;;;;19.83;10.65;;;;;;;;;;5095480;28;20020;-70
2022/11/19 08:34:00;;;;;;;15.60;8.35;;;;;;;;;;5095284;28;20378;-70
2022/11/19 08:36:27;;;;;;;20.05;9.18;;;;;;;;;;5095107;28;20024;-70
2022/11/19 08:38:57;;;;;;;12.02;7.85;;;;;;;;;;5095108;28;20527;-69
2022/11/19 08:44:08;;;;;;;7.63;4.30;;;;;;;;;;5074479;28;20044;-70
2022/11/19 08:46:35;;;;;;;7.20;4.32;;;;;;;;;;5075014;28;20074;-70
2022/11/19 08:49:02;;;;;;;6.93;4.68;;;;;;;;;;5074637;28;20036;-70
2022/11/19 08:51:28;;;;;;;8.60;4.55;;;;;;;;;;5074957;28;20024;-70
2022/11/19 08:53:54;;;;;;;11.45;8.45;;;;;;;;;;5074418;28;20017;-70
2022/11/19 08:56:21;;;;;;;10.25;4.30;;;;;;;;;;5074945;28;20020;-70
2022/11/19 08:58:47;;;;;;;6.07;3.83;;;;;;;;;;5056391;28;20690;-68
2022/11/19 09:01:16;;;;;;;13.55;5.20;;;;;;;;;;5074514;28;20040;-70
2022/11/19 09:03:42;;;;;;;8.20;4.00;;;;;;;;;;5074352;28;20031;-70
2022/11/19 09:06:09;;;;;;;6.70;3.35;;;;;;;;;;5074817;28;20030;-70
2022/11/19 09:08:36;;;;;;;5.32;2.40;;;;;;;;;;5074362;28;20031;-69
2022/11/19 09:11:09;;;;;;;3.45;2.45;;;;;;;;;;5074224;28;20028;-70
2022/11/19 09:13:36;;;;;;;5.85;2.45;;;;;;;;;;5074364;28;20027;-69
2022/11/19 09:16:02;;;;;;;3.65;2.17;;;;;;;;;;5074000;28;20466;-70
2022/11/19 09:18:28;;;;;;;5.30;2.38;;;;;;;;;;5074447;28;20046;-70
2022/11/19 09:20:55;;;;;;;2.50;1.90;;;;;;;;;;5074225;28;20036;-70
2022/11/19 09:23:22;;;;;;;4.97;1.90;;;;;;;;;;5074198;28;20397;-70
2022/11/19 09:26:02;;;;;;;3.67;1.88;;;;;;;;;;5055911;28;20040;-70
2022/11/19 09:28:29;;;;;;;3.67;1.90;;;;;;;;;;5073595;28;20032;-70
2022/11/19 09:30:56;;;;;;;3.97;2.08;;;;;;;;;;5074030;28;20017;-70
2022/11/19 09:33:23;;;;;;;2.58;1.73;;;;;;;;;;5074199;28;20028;-70
2022/11/19 09:35:49;;;;;;;3.20;1.20;;;;;;;;;;5055869;28;20027;-70
2022/11/19 09:38:15;;;;;;;2.50;0.85;;;;;;;;;;5073902;28;20047;-69
2022/11/19 09:40:50;;;;;;;4.68;0.98;;;;;;;;;;5081683;28;20036;-70
2022/11/19 09:43:21;;;;;;;2.10;0.82;;;;;;;;;;5093780;28;20054;-70
2022/11/19 09:45:59;;;;;;;6.93;0.80;;;;;;;;;;5093815;28;20032;-70
2022/11/19 09:48:29;;;;;;;1.67;1.02;;;;;;;;;;5093976;28;20027;-70
2022/11/19 09:50:58;;;;;;;3.50;1.33;;;;;;;;;;5076112;28;20028;-70
2022/11/19 09:53:29;;;;;;;4.85;1.23;;;;;;;;;;5093859;28;20042;-69
2022/11/19 09:55:56;;;;;;;1.40;0.90;;;;;;;;;;5093403;28;20036;-70
2022/11/19 09:58:39;;;;;;;1.65;0.80;;;;;;;;;;5093715;28;20021;-70
2022/11/19 10:01:06;;;;;;;3.10;1.00;;;;;;;;;;5093892;28;20028;-70
2022/11/19 10:03:32;;;;;;;2.17;1.05;;;;;;;;;;5075786;28;20030;-70
2022/11/19 10:06:05;;;;;;;2.28;0.82;;;;;;;;;;5093496;28;20030;-69
2022/11/19 10:08:37;;;;;;;1.90;1.17;;;;;;;;;;5093394;28;20024;-70
2022/11/19 10:11:09;;;;;;;2.65;1.15;;;;;;;;;;5093090;28;20031;-70
2022/11/19 10:13:54;;;;;;;4.43;1.30;;;;;;;;;;5093595;28;20009;-69
2022/11/19 10:16:43;;;;;;;3.50;0.93;;;;;;;;;;5093287;28;20012;-70
2022/11/19 10:19:18;;;;;;;2.60;1.02;;;;;;;;;;5093263;28;20032;-70
2022/11/19 10:21:54;;;;;;;2.45;0.85;;;;;;;;;;5093295;28;20028;-70
2022/11/19 10:24:20;;;;;;;2.35;0.80;;;;;;;;;;5092620;28;20510;-70
2022/11/19 10:27:11;;;;;;;2.33;0.90;;;;;;;;;;5092753;28;20546;-70
2022/11/19 10:29:39;;;;;;;1.27;0.70;;;;;;;;;;5075133;28;20028;-70
2022/11/19 10:32:20;;;;;;;1.45;0.80;;;;;;;;;;5093052;28;20400;-70
2022/11/19 10:34:48;;;;;;;2.22;1.10;;;;;;;;;;5092947;28;20016;-70
2022/11/19 10:37:19;;;;;;;2.05;0.90;;;;;;;;;;5092906;28;20033;-70
2022/11/19 10:39:45;;;;;;;4.88;1.55;;;;;;;;;;5092634;28;20069;-70
2022/11/19 10:42:19;;;;;;;6.07;1.65;;;;;;;;;;5072641;28;20073;-70
2022/11/19 10:45:04;;;;;;;4.35;2.05;;;;;;;;;;5072300;28;20033;-70
2022/11/19 10:47:48;;;;;;;2.97;1.15;;;;;;;;;;5072542;28;20024;-70
2022/11/19 10:50:16;;;;;;;3.70;1.60;;;;;;;;;;5072773;28;20035;-70
2022/11/19 10:52:43;;;;;;;4.18;2.20;;;;;;;;;;5072443;28;20484;-70
2022/11/19 10:55:18;;;;;;;2.15;1.10;;;;;;;;;;5072240;28;20028;-70
2022/11/19 10:57:45;;;;;;;2.53;1.10;;;;;;;;;;5072291;28;20028;-70
2022/11/19 11:00:12;;;;;;;1.48;0.90;;;;;;;;;;5072489;28;20017;-70
2022/11/19 11:02:51;;;;;;;2.10;0.80;;;;;;;;;;5072697;28;20037;-70
2022/11/19 11:05:18;;;;;;;2.28;1.00;;;;;;;;;;5072227;28;20025;-70
2022/11/19 11:07:44;;;;;;;3.83;1.40;;;;;;;;;;5072436;28;20026;-70
2022/11/19 11:10:44;;;;;;;2.65;1.10;;;;;;;;;;5071864;28;20031;-70
2022/11/19 11:15:58;;;;;;;3.67;1.40;;;;;;;;;;5030125;28;20049;-70
2022/11/19 11:18:26;;;;;;;2.90;1.00;;;;;;;;;;5029920;28;20471;-70
2022/11/19 11:20:53;;;;;;;2.80;1.80;;;;;;;;;;5030239;28;20021;-71
2022/11/19 11:23:23;;;;;;;5.88;2.88;;;;;;;;;;5029584;28;20104;-70
2022/11/19 11:25:50;;;;;;;;;;;;;;;;;;5030117;28;20538;-69
2022/11/19 11:28:18;;;;;;;3.47;1.40;;;;;;;;;;5029864;28;20348;-70
2022/11/19 11:30:59;;;;;;;2.67;1.23;;;;;;;;;;5030015;28;20033;-70
2022/11/19 11:33:28;;;;;;;2.92;0.90;;;;;;;;;;5030009;28;20039;-70
2022/11/19 11:35:55;;;;;;;3.42;1.13;;;;;;;;;;5030091;28;20041;-70
2022/11/19 11:38:23;;;;;;;2.13;1.10;;;;;;;;;;5029334;28;20059;-70
2022/11/19 11:40:55;;;;;;;2.63;1.00;;;;;;;;;;5028471;28;20474;-70
2022/11/19 11:43:21;;;;;;;2.70;1.15;;;;;;;;;;5034207;28;20049;-68
2022/11/19 11:45:55;;;;;;;2.83;0.90;;;;;;;;;;5017147;28;20044;-70
2022/11/19 11:48:21;;;;;;;2.38;0.93;;;;;;;;;;5048386;28;20051;-70
2022/11/19 11:50:48;;;;;;;3.42;0.70;;;;;;;;;;5075855;28;20027;-68
2022/11/19 11:53:15;;;;;;;3.70;1.10;;;;;;;;;;5075385;28;20396;-71
2022/11/19 11:55:42;;;;;;;2.80;1.35;;;;;;;;;;5075760;28;20032;-70
2022/11/19 11:58:27;;;;;;;3.90;1.35;;;;;;;;;;5075999;28;20021;-70
2022/11/19 12:00:54;;;;;;;1.15;0.80;;;;;;;;;;5075722;28;20037;-70
2022/11/19 12:03:21;;;;;;;1.73;0.85;;;;;;;;;;5075595;28;20047;-70
2022/11/19 12:05:47;;;;;;;3.25;1.17;;;;;;;;;;5075053;28;20032;-70
2022/11/19 12:08:20;;;;;;;1.20;0.70;;;;;;;;;;5075085;28;20024;-70
2022/11/19 12:10:49;;;;;;;2.55;1.15;;;;;;;;;;5075689;28;20389;-70
2022/11/19 12:13:27;;;;;;;2.50;0.85;;;;;;;;;;5074475;28;20025;-70
2022/11/19 12:16:00;;;;;;;3.05;0.98;;;;;;;;;;5057032;28;20047;-70
2022/11/19 12:18:31;;;;;;;4.25;1.85;;;;;;;;;;5075264;28;20078;-70
2022/11/19 12:21:17;;;;;;;5.93;2.10;;;;;;;;;;5074943;28;20028;-70
2022/11/19 12:24:02;;;;;;;4.30;1.30;;;;;;;;;;5075039;28;20031;-70
2022/11/19 12:26:51;;;;;;;3.65;1.40;;;;;;;;;;5075071;28;20032;-70
2022/11/19 12:29:18;;;;;;;3.72;1.27;;;;;;;;;;5064640;28;20035;-71
2022/11/19 12:31:44;;;;;;;5.10;0.90;;;;;;;;;;5074996;28;20033;-70
2022/11/19 12:34:23;;;;;;;3.50;0.77;;;;;;;;;;5074909;28;20073;-70
2022/11/19 12:36:55;;;;;;;6.28;3.60;;;;;;;;;;5074674;28;20028;-70
2022/11/19 12:39:40;;;;;;;3.40;1.20;;;;;;;;;;5074912;28;20050;-70
2022/11/19 12:42:18;;;;;;;3.35;1.15;;;;;;;;;;5075312;28;20032;-70
2022/11/19 12:44:50;;;;;;;2.85;1.10;;;;;;;;;;5074967;28;20037;-70
2022/11/19 12:47:27;;;;;;;2.80;1.10;;;;;;;;;;5074805;28;20028;-70
2022/11/19 12:49:53;;;;;;;1.85;1.10;;;;;;;;;;5074686;28;20377;-70
2022/11/19 12:52:28;;;;;;;2.10;0.88;;;;;;;;;;5074334;28;20021;-70
2022/11/19 12:55:13;;;;;;;4.03;0.95;;;;;;;;;;5074890;28;20020;-70
2022/11/19 12:57:58;;;;;;;2.35;1.20;;;;;;;;;;5074749;28;20033;-70
2022/11/19 13:00:25;;;;;;;4.50;1.17;;;;;;;;;;5074557;28;20028;-70
2022/11/19 13:03:13;;;;;;;2.85;0.88;;;;;;;;;;5074423;28;20058;-70
2022/11/19 13:05:40;;;;;;;2.45;1.02;;;;;;;;;;5074122;28;20040;-70
2022/11/19 13:08:06;;;;;;;5.30;1.70;;;;;;;;;;5074723;28;20031;-70
2022/11/19 13:10:34;;;;;;;2.58;1.35;;;;;;;;;;5074414;28;20358;-70
2022/11/19 13:13:02;;;;;;;8.23;1.05;;;;;;;;;;5074377;28;20031;-70
2022/11/19 13:15:34;;;;;;;2.20;0.80;;;;;;;;;;5074232;28;20035;-70
2022/11/19 13:18:03;;;;;;;3.70;1.10;;;;;;;;;;5074224;28;20507;-70
2022/11/19 13:20:49;;;;;;;2.40;0.90;;;;;;;;;;5074179;28;20028;-70
2022/11/19 13:23:21;;;;;;;3.78;1.20;;;;;;;;;;5074196;28;20033;-70
2022/11/19 13:26:05;;;;;;;3.33;1.13;;;;;;;;;;5073894;28;20047;-70
2022/11/19 13:28:46;;;;;;;1.90;0.65;;;;;;;;;;5074325;28;20028;-70
2022/11/19 13:31:16;;;;;;;2.95;1.00;;;;;;;;;;5074160;28;20027;-70
2022/11/19 13:33:49;;;;;;;3.00;0.88;;;;;;;;;;5073704;28;20055;-70
2022/11/19 13:36:25;;;;;;;4.18;1.40;;;;;;;;;;5074189;28;20031;-70
2022/11/19 13:38:54;;;;;;;5.22;1.30;;;;;;;;;;5073822;28;20501;-70
2022/11/19 13:41:30;;;;;;;5.30;1.67;;;;;;;;;;5087114;28;20093;-70
2022/11/19 13:46:55;;;;;;;4.88;1.20;;;;;;;;;;5093913;28;20044;-70
2022/11/19 13:49:24;;;;;;;2.00;0.98;;;;;;;;;;5075300;28;20028;-70
2022/11/19 13:51:53;;;;;;;4.18;1.08;;;;;;;;;;5093605;28;20380;-70
2022/11/19 13:54:39;;;;;;;2.97;1.00;;;;;;;;;;5094107;28;20034;-70
2022/11/19 13:57:06;;;;;;;2.63;1.20;;;;;;;;;;5093898;28;20026;-70
2022/11/19 13:59:37;;;;;;;2.95;1.05;;;;;;;;;;5093674;28;20043;-70
2022/11/19 14:02:10;;;;;;;3.05;1.15;;;;;;;;;;5092955;28;20020;-69
2022/11/19 14:04:51;;;;;;;4.97;1.35;;;;;;;;;;5092951;28;20065;-70
2022/11/19 14:07:18;;;;;;;3.95;1.30;;;;;;;;;;5093507;28;20396;-69
2022/11/19 14:09:44;;;;;;;1.98;0.93;;;;;;;;;;5093320;28;20392;-70
2022/11/19 14:12:16;;;;;;;3.78;1.10;;;;;;;;;;5093797;28;20089;-70
2022/11/19 14:26:41;;;;;;;3.85;0.90;;;;;;;;;;5093113;28;20500;-70
2022/11/19 14:29:19;;;;;;;2.95;1.27;;;;;;;;;;5093057;28;20020;-69
2022/11/19 14:32:07;;;;;;;3.28;1.23;;;;;;;;;;5093035;28;20016;-69
2022/11/19 14:34:34;;;;;;;6.55;2.10;;;;;;;;;;5092865;28;20446;-70
2022/11/19 14:37:03;;;;;;;5.80;1.40;;;;;;;;;;5092970;28;20495;-69
2022/11/19 14:39:30;;;;;;;6.72;2.92;;;;;;;;;;5092863;28;20038;-69
2022/11/19 14:42:15;;;;;;;6.68;2.40;;;;;;;;;;5056969;28;20024;-70
2022/11/19 14:44:42;;;;;;;11.55;5.53;;;;;;;;;;5072377;28;20393;-70
2022/11/19 14:47:23;;;;;;;23.63;12.63;;;;;;;;;;5072086;28;20054;-69
2022/11/19 14:49:51;;;;;;;5.47;1.88;;;;;;;;;;5072686;28;20021;-69
2022/11/19 14:52:19;;;;;;;13.35;5.38;;;;;;;;;;5072552;28;20020;-70
2022/11/19 14:54:51;;;;;;;4.55;1.45;;;;;;;;;;5072413;28;20480;-70
2022/11/19 14:57:29;;;;;;;3.35;1.35;;;;;;;;;;5072700;28;20027;-70
2022/11/19 15:00:01;;;;;;;4.03;1.42;;;;;;;;;;5072670;28;20024;-69
2022/11/19 15:02:44;;;;;;;3.85;1.65;;;;;;;;;;5072107;28;20020;-68
2022/11/19 15:05:16;;;;;;;4.30;1.52;;;;;;;;;;5072171;28;20739;-70
2022/11/19 15:07:50;;;;;;;3.33;1.55;;;;;;;;;;5064212;28;20013;-70
2022/11/19 15:10:19;;;;;;;5.13;1.85;;;;;;;;;;5072183;28;20021;-70
2022/11/19 15:12:45;;;;;;;7.72;4.18;;;;;;;;;;5054209;28;20021;-70
2022/11/19 15:15:23;;;;;;;16.05;6.68;;;;;;;;;;5071435;28;20508;-69
2022/11/19 15:18:01;;;;;;;16.27;7.50;;;;;;;;;;5072152;28;20502;-70
2022/11/19 15:20:46;;;;;;;7.60;2.60;;;;;;;;;;5072351;28;20016;-70
2022/11/19 15:23:33;;;;;;;5.18;2.40;;;;;;;;;;5072070;28;20025;-70
2022/11/19 15:26:18;;;;;;;9.27;3.65;;;;;;;;;;5071967;28;20451;-70
2022/11/19 15:29:03;;;;;;;6.28;1.27;;;;;;;;;;5072047;28;20016;-70
2022/11/19 15:31:39;;;;;;;4.90;1.42;;;;;;;;;;5071931;28;20012;-70
2022/11/19 15:34:05;;;;;;;4.55;1.95;;;;;;;;;;5072321;28;20035;-70